sensor_id;sensor_type;location;lat;lon;timestamp;pressure;altitude;pressure_sealevel;temperature;humidity
49459;BME280;35354;51.296;16.924;2022-07-06T00:02:15;99828.44;;;16.90;100.00
49459;BME280;35354;51.296;16.924;2022-07-06T00:04:40;99818.75;;;16.91;100.00
49459;BME280;35354;51.296;16.924;2022-07-06T00:07:06;99815.78;;;16.95;100.00
49459;BME280;35354;51.296;16.924;2022-07-06T00:09:32;99808.53;;;16.99;100.00
49459;BME280;35354;51.296;16.924;2022-07-06T00:11:57;99814.59;;;17.12;100.00
49459;BME280;35354;51.296;16.924;2022-07-06T00:14:23;99823.97;;;17.16;100.00
49459;BME280;35354;51.296;16.924;2022-07-06T00:16:48;99827.94;;;17.22;100.00
49459;BME280;35354;51.296;16.924;2022-07-06T00:19:14;99827.59;;;17.27;100.00
49459;BME280;35354;51.296;16.924;2022-07-06T00:21:39;99827.41;;;17.30;99.77
49459;BME280;35354;51.296;16.924;2022-07-06T00:24:05;99819.63;;;17.28;99.63
49459;BME280;35354;51.296;16.924;2022-07-06T00:26:30;99817.69;;;17.30;99.76
49459;BME280;35354;51.296;16.924;2022-07-06T00:28:56;99803.81;;;17.28;99.53
49459;BME280;35354;51.296;16.924;2022-07-06T00:31:21;99816.53;;;17.34;99.41
49459;BME280;35354;51.296;16.924;2022-07-06T00:33:47;99819.03;;;17.36;99.78
49459;BME280;35354;51.296;16.924;2022-07-06T00:36:12;99820.00;;;17.35;99.88
49459;BME280;35354;51.296;16.924;2022-07-06T00:38:37;99815.19;;;17.29;100.00
49459;BME280;35354;51.296;16.924;2022-07-06T00:41:03;99809.19;;;17.27;99.96
49459;BME280;35354;51.296;16.924;2022-07-06T00:43:28;99808.25;;;17.28;100.00
49459;BME280;35354;51.296;16.924;2022-07-06T00:45:54;99813.28;;;17.31;100.00
49459;BME280;35354;51.296;16.924;2022-07-06T00:48:19;99815.19;;;17.29;100.00
49459;BME280;35354;51.296;16.924;2022-07-06T00:50:45;99803.41;;;17.21;100.00
49459;BME280;35354;51.296;16.924;2022-07-06T00:53:10;99810.69;;;17.18;100.00
49459;BME280;35354;51.296;16.924;2022-07-06T00:55:38;99804.47;;;17.19;100.00
49459;BME280;35354;51.296;16.924;2022-07-06T00:58:05;99796.19;;;17.12;100.00
49459;BME280;35354;51.296;16.924;2022-07-06T01:00:32;99807.22;;;17.17;100.00
49459;BME280;35354;51.296;16.924;2022-07-06T01:02:58;99804.56;;;17.17;100.00
49459;BME280;35354;51.296;16.924;2022-07-06T01:05:23;99802.06;;;17.16;100.00
49459;BME280;35354;51.296;16.924;2022-07-06T01:07:51;99807.41;;;17.14;100.00
49459;BME280;35354;51.296;16.924;2022-07-06T01:10:18;99804.19;;;17.11;100.00
49459;BME280;35354;51.296;16.924;2022-07-06T01:12:45;99813.63;;;17.13;100.00
49459;BME280;35354;51.296;16.924;2022-07-06T01:15:13;99818.91;;;17.13;100.00
49459;BME280;35354;51.296;16.924;2022-07-06T01:17:39;99799.22;;;17.06;100.00
49459;BME280;35354;51.296;16.924;2022-07-06T01:20:18;99805.44;;;17.05;100.00
49459;BME280;35354;51.296;16.924;2022-07-06T01:22:46;99813.97;;;17.09;100.00
49459;BME280;35354;51.296;16.924;2022-07-06T01:25:11;99810.91;;;17.02;100.00
49459;BME280;35354;51.296;16.924;2022-07-06T01:27:38;99798.72;;;17.01;100.00
49459;BME280;35354;51.296;16.924;2022-07-06T01:30:17;99792.81;;;16.98;100.00
49459;BME280;35354;51.296;16.924;2022-07-06T01:32:43;99801.25;;;17.03;100.00
49459;BME280;35354;51.296;16.924;2022-07-06T01:35:11;99804.09;;;17.00;100.00
49459;BME280;35354;51.296;16.924;2022-07-06T01:37:37;99801.69;;;16.96;100.00
49459;BME280;35354;51.296;16.924;2022-07-06T01:40:04;99798.34;;;16.94;100.00
49459;BME280;35354;51.296;16.924;2022-07-06T01:42:30;99804.84;;;16.89;100.00
49459;BME280;35354;51.296;16.924;2022-07-06T01:44:55;99806.44;;;16.91;100.00
49459;BME280;35354;51.296;16.924;2022-07-06T01:47:21;99810.84;;;16.91;100.00
49459;BME280;35354;51.296;16.924;2022-07-06T01:49:47;99796.75;;;16.79;100.00
49459;BME280;35354;51.296;16.924;2022-07-06T01:52:13;99807.59;;;16.87;100.00
49459;BME280;35354;51.296;16.924;2022-07-06T01:54:38;99810.56;;;16.83;100.00
49459;BME280;35354;51.296;16.924;2022-07-06T01:57:04;99813.69;;;16.88;100.00
49459;BME280;35354;51.296;16.924;2022-07-06T01:59:29;99806.84;;;16.85;100.00
49459;BME280;35354;51.296;16.924;2022-07-06T02:01:55;99809.19;;;16.90;100.00
49459;BME280;35354;51.296;16.924;2022-07-06T02:04:20;99814.53;;;16.88;100.00
49459;BME280;35354;51.296;16.924;2022-07-06T02:06:46;99808.75;;;16.83;100.00
49459;BME280;35354;51.296;16.924;2022-07-06T02:09:11;99811.28;;;16.85;100.00
49459;BME280;35354;51.296;16.924;2022-07-06T02:11:37;99808.13;;;16.80;100.00
49459;BME280;35354;51.296;16.924;2022-07-06T02:14:02;99803.69;;;16.80;100.00
49459;BME280;35354;51.296;16.924;2022-07-06T02:16:28;99808.97;;;16.80;100.00
49459;BME280;35354;51.296;16.924;2022-07-06T02:18:53;99807.16;;;16.81;100.00
49459;BME280;35354;51.296;16.924;2022-07-06T02:21:18;99812.53;;;16.79;100.00
49459;BME280;35354;51.296;16.924;2022-07-06T02:23:44;99808.56;;;16.74;100.00
49459;BME280;35354;51.296;16.924;2022-07-06T02:26:09;99813.03;;;16.71;100.00
49459;BME280;35354;51.296;16.924;2022-07-06T02:28:34;99815.78;;;16.70;100.00
49459;BME280;35354;51.296;16.924;2022-07-06T02:31:00;99806.63;;;16.63;100.00
49459;BME280;35354;51.296;16.924;2022-07-06T02:33:25;99816.19;;;16.64;100.00
49459;BME280;35354;51.296;16.924;2022-07-06T02:35:50;99801.19;;;16.53;100.00
49459;BME280;35354;51.296;16.924;2022-07-06T02:38:16;99814.31;;;16.53;100.00
49459;BME280;35354;51.296;16.924;2022-07-06T02:40:41;99818.94;;;16.50;100.00
49459;BME280;35354;51.296;16.924;2022-07-06T02:43:06;99798.22;;;16.32;100.00
49459;BME280;35354;51.296;16.924;2022-07-06T02:45:32;99814.22;;;16.42;100.00
49459;BME280;35354;51.296;16.924;2022-07-06T02:47:58;99830.09;;;16.40;100.00
49459;BME280;35354;51.296;16.924;2022-07-06T02:50:24;99824.91;;;16.39;100.00
49459;BME280;35354;51.296;16.924;2022-07-06T02:52:50;99827.47;;;16.40;100.00
49459;BME280;35354;51.296;16.924;2022-07-06T02:55:16;99830.72;;;16.44;100.00
49459;BME280;35354;51.296;16.924;2022-07-06T02:57:41;99831.56;;;16.44;100.00
49459;BME280;35354;51.296;16.924;2022-07-06T03:00:07;99825.34;;;16.45;100.00
49459;BME280;35354;51.296;16.924;2022-07-06T03:02:34;99825.56;;;16.55;100.00
49459;BME280;35354;51.296;16.924;2022-07-06T03:04:59;99829.78;;;16.58;100.00
49459;BME280;35354;51.296;16.924;2022-07-06T03:07:25;99827.88;;;16.60;100.00
49459;BME280;35354;51.296;16.924;2022-07-06T03:09:50;99822.72;;;16.58;100.00
49459;BME280;35354;51.296;16.924;2022-07-06T03:12:15;99817.34;;;16.60;100.00
49459;BME280;35354;51.296;16.924;2022-07-06T03:14:41;99830.81;;;16.68;100.00
49459;BME280;35354;51.296;16.924;2022-07-06T03:17:07;99825.69;;;16.66;100.00
49459;BME280;35354;51.296;16.924;2022-07-06T03:19:32;99822.94;;;16.68;100.00
49459;BME280;35354;51.296;16.924;2022-07-06T03:21:58;99821.13;;;16.68;100.00
49459;BME280;35354;51.296;16.924;2022-07-06T03:24:23;99821.13;;;16.68;100.00
49459;BME280;35354;51.296;16.924;2022-07-06T03:26:49;99815.03;;;16.68;100.00
49459;BME280;35354;51.296;16.924;2022-07-06T03:29:14;99829.78;;;16.70;100.00
49459;BME280;35354;51.296;16.924;2022-07-06T03:31:39;99847.78;;;16.77;100.00
49459;BME280;35354;51.296;16.924;2022-07-06T03:34:05;99859.06;;;16.79;100.00
49459;BME280;35354;51.296;16.924;2022-07-06T03:36:31;99865.28;;;16.78;100.00
49459;BME280;35354;51.296;16.924;2022-07-06T03:38:56;99857.75;;;16.71;100.00
49459;BME280;35354;51.296;16.924;2022-07-06T03:41:22;99839.66;;;16.67;100.00
49459;BME280;35354;51.296;16.924;2022-07-06T03:43:47;99860.28;;;16.60;100.00
49459;BME280;35354;51.296;16.924;2022-07-06T03:46:12;99871.66;;;16.61;100.00
49459;BME280;35354;51.296;16.924;2022-07-06T03:48:38;99889.00;;;16.63;100.00
49459;BME280;35354;51.296;16.924;2022-07-06T03:51:03;99874.69;;;16.55;100.00
49459;BME280;35354;51.296;16.924;2022-07-06T03:53:28;99879.22;;;16.53;100.00
49459;BME280;35354;51.296;16.924;2022-07-06T03:55:54;99901.50;;;16.60;100.00
49459;BME280;35354;51.296;16.924;2022-07-06T03:58:38;99876.91;;;16.48;100.00
49459;BME280;35354;51.296;16.924;2022-07-06T04:01:03;99880.69;;;16.44;100.00
49459;BME280;35354;51.296;16.924;2022-07-06T04:03:28;99888.34;;;16.47;100.00
49459;BME280;35354;51.296;16.924;2022-07-06T04:05:54;99901.28;;;16.50;100.00
49459;BME280;35354;51.296;16.924;2022-07-06T04:08:19;99893.72;;;16.45;100.00
49459;BME280;35354;51.296;16.924;2022-07-06T04:10:45;99888.66;;;16.42;100.00
49459;BME280;35354;51.296;16.924;2022-07-06T04:13:10;99885.94;;;16.44;100.00
49459;BME280;35354;51.296;16.924;2022-07-06T04:15:36;99899.09;;;16.44;100.00
49459;BME280;35354;51.296;16.924;2022-07-06T04:18:01;99899.94;;;16.44;100.00
49459;BME280;35354;51.296;16.924;2022-07-06T04:20:26;99905.25;;;16.43;100.00
49459;BME280;35354;51.296;16.924;2022-07-06T04:22:52;99917.69;;;16.41;100.00
49459;BME280;35354;51.296;16.924;2022-07-06T04:25:18;99918.06;;;16.35;100.00
49459;BME280;35354;51.296;16.924;2022-07-06T04:27:43;99923.13;;;16.38;100.00
49459;BME280;35354;51.296;16.924;2022-07-06T04:30:09;99922.59;;;16.33;100.00
49459;BME280;35354;51.296;16.924;2022-07-06T04:32:35;99918.69;;;16.26;100.00
49459;BME280;35354;51.296;16.924;2022-07-06T04:35:01;99921.97;;;16.29;100.00
49459;BME280;35354;51.296;16.924;2022-07-06T04:37:27;99935.03;;;16.31;100.00
49459;BME280;35354;51.296;16.924;2022-07-06T04:39:52;99934.78;;;16.34;100.00
49459;BME280;35354;51.296;16.924;2022-07-06T04:42:18;99922.16;;;16.26;100.00
49459;BME280;35354;51.296;16.924;2022-07-06T04:44:44;99937.00;;;16.27;100.00
49459;BME280;35354;51.296;16.924;2022-07-06T04:47:11;99941.69;;;16.22;100.00
49459;BME280;35354;51.296;16.924;2022-07-06T04:49:36;99933.38;;;16.15;100.00
49459;BME280;35354;51.296;16.924;2022-07-06T04:52:02;99928.00;;;16.17;100.00
49459;BME280;35354;51.296;16.924;2022-07-06T04:54:28;99936.75;;;16.17;100.00
49459;BME280;35354;51.296;16.924;2022-07-06T04:56:53;99945.38;;;16.19;100.00
49459;BME280;35354;51.296;16.924;2022-07-06T04:59:18;99933.75;;;16.09;100.00
49459;BME280;35354;51.296;16.924;2022-07-06T05:01:44;99932.28;;;16.05;100.00
49459;BME280;35354;51.296;16.924;2022-07-06T05:04:09;99945.97;;;16.10;100.00
49459;BME280;35354;51.296;16.924;2022-07-06T05:06:35;99937.44;;;16.07;100.00
49459;BME280;35354;51.296;16.924;2022-07-06T05:09:00;99946.72;;;16.12;100.00
49459;BME280;35354;51.296;16.924;2022-07-06T05:11:29;99938.09;;;16.10;100.00
49459;BME280;35354;51.296;16.924;2022-07-06T05:13:54;99946.63;;;16.14;100.00
49459;BME280;35354;51.296;16.924;2022-07-06T05:16:21;99942.41;;;16.11;100.00
49459;BME280;35354;51.296;16.924;2022-07-06T05:18:46;99936.13;;;16.14;100.00
49459;BME280;35354;51.296;16.924;2022-07-06T05:21:12;99938.63;;;16.15;100.00
49459;BME280;35354;51.296;16.924;2022-07-06T05:23:38;99940.22;;;16.18;100.00
49459;BME280;35354;51.296;16.924;2022-07-06T05:26:03;99936.66;;;16.19;100.00
49459;BME280;35354;51.296;16.924;2022-07-06T05:28:28;99925.09;;;16.21;100.00
49459;BME280;35354;51.296;16.924;2022-07-06T05:30:54;99926.56;;;16.26;100.00
49459;BME280;35354;51.296;16.924;2022-07-06T05:33:19;99927.75;;;16.34;100.00
49459;BME280;35354;51.296;16.924;2022-07-06T05:35:44;99924.81;;;16.39;100.00
49459;BME280;35354;51.296;16.924;2022-07-06T05:38:10;99917.56;;;16.42;100.00
49459;BME280;35354;51.296;16.924;2022-07-06T05:40:36;99904.66;;;16.39;100.00
49459;BME280;35354;51.296;16.924;2022-07-06T05:43:01;99898.13;;;16.45;100.00
49459;BME280;35354;51.296;16.924;2022-07-06T05:45:26;99893.91;;;16.42;100.00
49459;BME280;35354;51.296;16.924;2022-07-06T05:47:52;99871.50;;;16.37;100.00
49459;BME280;35354;51.296;16.924;2022-07-06T05:50:36;99857.09;;;16.30;100.00
49459;BME280;35354;51.296;16.924;2022-07-06T05:53:03;99892.34;;;16.40;100.00
49459;BME280;35354;51.296;16.924;2022-07-06T05:55:29;99902.03;;;16.39;100.00
49459;BME280;35354;51.296;16.924;2022-07-06T05:57:54;99892.66;;;16.35;100.00
49459;BME280;35354;51.296;16.924;2022-07-06T06:00:21;99900.31;;;16.38;100.00
49459;BME280;35354;51.296;16.924;2022-07-06T06:02:46;99911.59;;;16.40;100.00
49459;BME280;35354;51.296;16.924;2022-07-06T06:05:13;99915.59;;;16.46;100.00
49459;BME280;35354;51.296;16.924;2022-07-06T06:07:38;99909.69;;;16.42;100.00
49459;BME280;35354;51.296;16.924;2022-07-06T06:10:08;99911.28;;;16.45;100.00
49459;BME280;35354;51.296;16.924;2022-07-06T06:12:34;99914.44;;;16.50;100.00
49459;BME280;35354;51.296;16.924;2022-07-06T06:15:00;99938.53;;;16.57;100.00
49459;BME280;35354;51.296;16.924;2022-07-06T06:17:26;99956.53;;;16.63;100.00
49459;BME280;35354;51.296;16.924;2022-07-06T06:19:51;99958.13;;;16.65;100.00
49459;BME280;35354;51.296;16.924;2022-07-06T06:22:17;99958.84;;;16.67;100.00
49459;BME280;35354;51.296;16.924;2022-07-06T06:24:42;99948.75;;;16.61;100.00
49459;BME280;35354;51.296;16.924;2022-07-06T06:27:07;99965.91;;;16.67;100.00
49459;BME280;35354;51.296;16.924;2022-07-06T06:29:33;99968.22;;;16.71;100.00
49459;BME280;35354;51.296;16.924;2022-07-06T06:31:58;99957.81;;;16.70;100.00
49459;BME280;35354;51.296;16.924;2022-07-06T06:34:24;99956.59;;;16.76;100.00
49459;BME280;35354;51.296;16.924;2022-07-06T06:36:49;99958.59;;;16.85;100.00
49459;BME280;35354;51.296;16.924;2022-07-06T06:39:15;99963.03;;;16.97;100.00
49459;BME280;35354;51.296;16.924;2022-07-06T06:41:40;99970.06;;;17.22;100.00
49459;BME280;35354;51.296;16.924;2022-07-06T06:44:05;99954.56;;;17.43;100.00
49459;BME280;35354;51.296;16.924;2022-07-06T06:46:31;99957.75;;;17.98;100.00
49459;BME280;35354;51.296;16.924;2022-07-06T06:48:56;99957.16;;;18.53;100.00
49459;BME280;35354;51.296;16.924;2022-07-06T06:51:21;99952.88;;;20.32;100.00
49459;BME280;35354;51.296;16.924;2022-07-06T06:53:47;99966.19;;;23.12;90.09
49459;BME280;35354;51.296;16.924;2022-07-06T06:56:13;99964.34;;;24.15;82.84
49459;BME280;35354;51.296;16.924;2022-07-06T06:58:38;99953.22;;;24.73;77.95
49459;BME280;35354;51.296;16.924;2022-07-06T07:01:04;99945.81;;;25.11;74.51
49459;BME280;35354;51.296;16.924;2022-07-06T07:03:30;99949.78;;;24.81;74.31
49459;BME280;35354;51.296;16.924;2022-07-06T07:05:55;99946.91;;;25.60;72.22
49459;BME280;35354;51.296;16.924;2022-07-06T07:08:20;99950.63;;;26.83;69.08
49459;BME280;35354;51.296;16.924;2022-07-06T07:10:46;99956.81;;;28.49;62.92
49459;BME280;35354;51.296;16.924;2022-07-06T07:13:11;99939.91;;;29.75;59.77
49459;BME280;35354;51.296;16.924;2022-07-06T07:15:36;99949.50;;;30.85;54.83
49459;BME280;35354;51.296;16.924;2022-07-06T07:18:02;99953.31;;;31.73;50.93
49459;BME280;35354;51.296;16.924;2022-07-06T07:20:27;99957.63;;;32.29;46.86
49459;BME280;35354;51.296;16.924;2022-07-06T07:22:55;99946.03;;;32.68;44.13
49459;BME280;35354;51.296;16.924;2022-07-06T07:25:20;99951.84;;;32.98;42.02
49459;BME280;35354;51.296;16.924;2022-07-06T07:27:45;99959.31;;;33.03;40.31
49459;BME280;35354;51.296;16.924;2022-07-06T07:30:11;99954.97;;;33.09;39.26
49459;BME280;35354;51.296;16.924;2022-07-06T07:32:36;99964.06;;;33.14;38.55
49459;BME280;35354;51.296;16.924;2022-07-06T07:35:02;99959.28;;;33.16;37.60
49459;BME280;35354;51.296;16.924;2022-07-06T07:37:28;99959.91;;;33.25;36.51
49459;BME280;35354;51.296;16.924;2022-07-06T07:39:53;99953.66;;;33.24;36.95
49459;BME280;35354;51.296;16.924;2022-07-06T07:42:18;99953.06;;;33.16;36.87
49459;BME280;35354;51.296;16.924;2022-07-06T07:44:44;99964.31;;;33.06;37.01
49459;BME280;35354;51.296;16.924;2022-07-06T07:47:09;99955.78;;;33.09;36.98
49459;BME280;35354;51.296;16.924;2022-07-06T07:49:35;99968.22;;;32.90;36.80
49459;BME280;35354;51.296;16.924;2022-07-06T07:52:00;99963.69;;;32.71;36.38
49459;BME280;35354;51.296;16.924;2022-07-06T07:54:25;99964.09;;;32.41;37.65
49459;BME280;35354;51.296;16.924;2022-07-06T07:56:51;99956.16;;;32.26;37.53
49459;BME280;35354;51.296;16.924;2022-07-06T07:59:16;99974.59;;;32.16;38.18
49459;BME280;35354;51.296;16.924;2022-07-06T08:01:41;99979.28;;;31.88;37.26
49459;BME280;35354;51.296;16.924;2022-07-06T08:04:07;99974.25;;;31.09;38.17
49459;BME280;35354;51.296;16.924;2022-07-06T08:06:32;99963.94;;;30.63;40.41
49459;BME280;35354;51.296;16.924;2022-07-06T08:08:58;99977.22;;;30.43;40.00
49459;BME280;35354;51.296;16.924;2022-07-06T08:11:23;99968.59;;;30.11;41.29
49459;BME280;35354;51.296;16.924;2022-07-06T08:13:49;99978.84;;;30.01;42.12
49459;BME280;35354;51.296;16.924;2022-07-06T08:16:14;99977.16;;;29.64;42.22
49459;BME280;35354;51.296;16.924;2022-07-06T08:18:40;99979.72;;;29.27;43.05
49459;BME280;35354;51.296;16.924;2022-07-06T08:21:06;99971.31;;;28.93;44.94
49459;BME280;35354;51.296;16.924;2022-07-06T08:23:31;99981.63;;;28.66;44.50
49459;BME280;35354;51.296;16.924;2022-07-06T08:26:00;99980.09;;;28.18;45.51
49459;BME280;35354;51.296;16.924;2022-07-06T08:28:25;99992.44;;;27.56;46.18
49459;BME280;35354;51.296;16.924;2022-07-06T08:30:50;99986.19;;;26.92;47.40
49459;BME280;35354;51.296;16.924;2022-07-06T08:33:16;99990.69;;;26.34;49.63
49459;BME280;35354;51.296;16.924;2022-07-06T08:35:41;99986.31;;;26.17;50.84
49459;BME280;35354;51.296;16.924;2022-07-06T08:38:07;99978.75;;;25.96;52.19
49459;BME280;35354;51.296;16.924;2022-07-06T08:40:38;99975.53;;;25.84;53.14
49459;BME280;35354;51.296;16.924;2022-07-06T08:43:05;99969.44;;;25.74;54.29
49459;BME280;35354;51.296;16.924;2022-07-06T08:45:32;99970.44;;;25.65;55.26
49459;BME280;35354;51.296;16.924;2022-07-06T08:48:03;99971.91;;;25.59;56.14
49459;BME280;35354;51.296;16.924;2022-07-06T08:50:29;99988.94;;;25.32;54.19
49459;BME280;35354;51.296;16.924;2022-07-06T08:52:54;99983.53;;;25.16;55.15
49459;BME280;35354;51.296;16.924;2022-07-06T08:55:20;99970.69;;;25.11;55.55
49459;BME280;35354;51.296;16.924;2022-07-06T08:57:48;99980.47;;;25.11;56.21
49459;BME280;35354;51.296;16.924;2022-07-06T09:00:14;99974.41;;;25.01;56.45
49459;BME280;35354;51.296;16.924;2022-07-06T09:02:40;99962.78;;;24.84;56.41
49459;BME280;35354;51.296;16.924;2022-07-06T09:05:07;99955.63;;;24.84;58.03
49459;BME280;35354;51.296;16.924;2022-07-06T09:07:34;99954.63;;;24.85;58.73
49459;BME280;35354;51.296;16.924;2022-07-06T09:10:00;99963.44;;;24.86;57.16
49459;BME280;35354;51.296;16.924;2022-07-06T09:12:27;99961.78;;;24.85;57.75
49459;BME280;35354;51.296;16.924;2022-07-06T09:14:56;99945.91;;;24.75;58.27
49459;BME280;35354;51.296;16.924;2022-07-06T09:17:25;99960.59;;;24.79;59.04
49459;BME280;35354;51.296;16.924;2022-07-06T09:19:50;99954.63;;;24.85;58.53
49459;BME280;35354;51.296;16.924;2022-07-06T09:22:31;99952.25;;;24.74;58.56
49459;BME280;35354;51.296;16.924;2022-07-06T09:27:28;99960.41;;;24.55;56.20
49459;BME280;35354;51.296;16.924;2022-07-06T09:29:53;99956.66;;;24.48;57.68
49459;BME280;35354;51.296;16.924;2022-07-06T09:32:22;99953.69;;;24.51;57.33
49459;BME280;35354;51.296;16.924;2022-07-06T09:34:47;99947.25;;;24.53;56.12
49459;BME280;35354;51.296;16.924;2022-07-06T09:37:14;99943.41;;;24.56;56.93
49459;BME280;35354;51.296;16.924;2022-07-06T09:39:40;99944.66;;;24.61;56.32
49459;BME280;35354;51.296;16.924;2022-07-06T09:42:06;99937.78;;;24.59;56.38
49459;BME280;35354;51.296;16.924;2022-07-06T09:44:38;99940.28;;;24.60;55.88
49459;BME280;35354;51.296;16.924;2022-07-06T09:47:06;99942.34;;;24.67;55.71
49459;BME280;35354;51.296;16.924;2022-07-06T09:49:32;99928.88;;;24.68;53.39
49459;BME280;35354;51.296;16.924;2022-07-06T09:52:00;99932.75;;;24.74;52.71
49459;BME280;35354;51.296;16.924;2022-07-06T09:54:26;99928.50;;;24.63;51.73
49459;BME280;35354;51.296;16.924;2022-07-06T09:56:53;99946.16;;;24.64;51.09
49459;BME280;35354;51.296;16.924;2022-07-06T09:59:20;99933.00;;;24.62;50.01
49459;BME280;35354;51.296;16.924;2022-07-06T10:01:48;99939.31;;;24.61;48.58
49459;BME280;35354;51.296;16.924;2022-07-06T10:04:15;99943.41;;;24.56;48.63
49459;BME280;35354;51.296;16.924;2022-07-06T10:06:44;99937.28;;;24.37;48.72
49459;BME280;35354;51.296;16.924;2022-07-06T10:09:10;99931.47;;;24.24;49.22
49459;BME280;35354;51.296;16.924;2022-07-06T10:11:42;99927.91;;;24.15;49.57
49459;BME280;35354;51.296;16.924;2022-07-06T10:14:10;99930.88;;;24.12;50.46
49459;BME280;35354;51.296;16.924;2022-07-06T10:16:38;99940.75;;;24.20;51.99
49459;BME280;35354;51.296;16.924;2022-07-06T10:19:08;99941.97;;;24.26;51.75
49459;BME280;35354;51.296;16.924;2022-07-06T10:21:39;99933.38;;;24.32;51.57
49459;BME280;35354;51.296;16.924;2022-07-06T10:24:07;99945.91;;;24.22;50.44
49459;BME280;35354;51.296;16.924;2022-07-06T10:26:34;99945.09;;;24.21;50.63
49459;BME280;35354;51.296;16.924;2022-07-06T10:29:01;99944.56;;;24.18;49.38
49459;BME280;35354;51.296;16.924;2022-07-06T10:31:28;99947.09;;;24.19;50.41
49459;BME280;35354;51.296;16.924;2022-07-06T10:33:55;99943.97;;;24.24;48.67
49459;BME280;35354;51.296;16.924;2022-07-06T10:36:22;99943.44;;;24.38;49.60
49459;BME280;35354;51.296;16.924;2022-07-06T10:38:50;99945.69;;;24.33;48.44
49459;BME280;35354;51.296;16.924;2022-07-06T10:41:16;99927.38;;;24.30;48.53
49459;BME280;35354;51.296;16.924;2022-07-06T10:43:43;99935.88;;;24.33;48.30
49459;BME280;35354;51.296;16.924;2022-07-06T10:48:38;99936.28;;;24.03;47.59
49459;BME280;35354;51.296;16.924;2022-07-06T10:51:03;99954.84;;;23.85;48.12
49459;BME280;35354;51.296;16.924;2022-07-06T10:53:34;99956.50;;;23.58;48.88
49459;BME280;35354;51.296;16.924;2022-07-06T10:56:03;99967.81;;;23.33;49.77
49459;BME280;35354;51.296;16.924;2022-07-06T11:01:07;99962.19;;;22.99;51.88
49459;BME280;35354;51.296;16.924;2022-07-06T11:06:10;99958.53;;;23.00;52.81
49459;BME280;35354;51.296;16.924;2022-07-06T11:11:12;99971.22;;;23.15;53.73
49459;BME280;35354;51.296;16.924;2022-07-06T11:16:22;99955.13;;;23.27;54.21
49459;BME280;35354;51.296;16.924;2022-07-06T11:18:59;99948.75;;;23.37;53.48
49459;BME280;35354;51.296;16.924;2022-07-06T11:24:01;99942.00;;;23.53;51.49
49459;BME280;35354;51.296;16.924;2022-07-06T11:26:27;99941.00;;;23.54;50.47
49459;BME280;35354;51.296;16.924;2022-07-06T11:28:53;99944.22;;;23.57;52.05
49459;BME280;35354;51.296;16.924;2022-07-06T11:31:18;99951.47;;;23.55;50.17
49459;BME280;35354;51.296;16.924;2022-07-06T11:33:48;99951.09;;;23.50;49.65
49459;BME280;35354;51.296;16.924;2022-07-06T11:38:43;99941.38;;;23.59;49.08
49459;BME280;35354;51.296;16.924;2022-07-06T11:41:10;99946.84;;;23.67;48.17
49459;BME280;35354;51.296;16.924;2022-07-06T11:43:37;99938.97;;;23.75;47.69
49459;BME280;35354;51.296;16.924;2022-07-06T11:46:04;99939.78;;;23.76;47.38
49459;BME280;35354;51.296;16.924;2022-07-06T11:48:29;99960.09;;;23.77;43.81
49459;BME280;35354;51.296;16.924;2022-07-06T11:51:02;99950.03;;;23.71;44.41
49459;BME280;35354;51.296;16.924;2022-07-06T11:53:28;99932.56;;;23.58;44.56
49459;BME280;35354;51.296;16.924;2022-07-06T11:55:54;99939.03;;;23.65;44.92
49459;BME280;35354;51.296;16.924;2022-07-06T11:58:23;99923.19;;;23.64;44.00
49459;BME280;35354;51.296;16.924;2022-07-06T12:01:07;99937.03;;;23.68;43.67
49459;BME280;35354;51.296;16.924;2022-07-06T12:03:33;99936.06;;;23.69;44.97
49459;BME280;35354;51.296;16.924;2022-07-06T12:06:01;99929.47;;;23.73;44.43
49459;BME280;35354;51.296;16.924;2022-07-06T12:08:26;99942.16;;;23.79;43.08
49459;BME280;35354;51.296;16.924;2022-07-06T12:10:52;99928.03;;;23.78;43.42
49459;BME280;35354;51.296;16.924;2022-07-06T12:13:18;99942.41;;;23.85;43.84
49459;BME280;35354;51.296;16.924;2022-07-06T12:15:43;99927.28;;;23.86;42.80
49459;BME280;35354;51.296;16.924;2022-07-06T12:18:09;99925.38;;;23.96;43.29
49459;BME280;35354;51.296;16.924;2022-07-06T12:20:34;99914.44;;;23.99;42.76
49459;BME280;35354;51.296;16.924;2022-07-06T12:23:04;99912.69;;;24.08;43.10
49459;BME280;35354;51.296;16.924;2022-07-06T12:25:34;99915.81;;;24.03;40.82
49459;BME280;35354;51.296;16.924;2022-07-06T12:28:00;99916.56;;;23.96;41.89
49459;BME280;35354;51.296;16.924;2022-07-06T12:30:25;99914.75;;;23.96;41.49
49459;BME280;35354;51.296;16.924;2022-07-06T12:33:17;99923.34;;;24.08;42.83
49459;BME280;35354;51.296;16.924;2022-07-06T12:35:44;99890.97;;;23.95;42.30
49459;BME280;35354;51.296;16.924;2022-07-06T12:38:10;99942.34;;;24.13;42.92
49459;BME280;35354;51.296;16.924;2022-07-06T12:40:36;99940.69;;;24.12;42.28
49459;BME280;35354;51.296;16.924;2022-07-06T12:43:03;99921.50;;;24.08;41.89
49459;BME280;35354;51.296;16.924;2022-07-06T12:45:29;99939.69;;;24.13;42.25
49459;BME280;35354;51.296;16.924;2022-07-06T12:48:03;99941.06;;;24.17;42.76
49459;BME280;35354;51.296;16.924;2022-07-06T12:50:37;99927.91;;;24.15;42.99
49459;BME280;35354;51.296;16.924;2022-07-06T12:53:04;99931.41;;;24.16;43.09
49459;BME280;35354;51.296;16.924;2022-07-06T12:55:30;99933.44;;;24.22;43.84
49459;BME280;35354;51.296;16.924;2022-07-06T12:57:58;99928.97;;;24.23;44.29
49459;BME280;35354;51.296;16.924;2022-07-06T13:00:24;99923.97;;;24.20;41.28
49459;BME280;35354;51.296;16.924;2022-07-06T13:02:52;99926.91;;;24.17;42.65